Time;durP1;ratioP1;P1;durP2;ratioP2;P2;SDS_P1;SDS_P2;PMS_P1;PMS_P2;Temp;Humidity;BMP_temperature;BMP_pressure;BME280_temperature;BME280_humidity;BME280_pressure;Samples;Min_cycle;Max_cycle;Signal;HPM_P1;HPM_P2
2022/07/05 00:02:00;;;;;;;4.40;3.75;;;21.30;51.00;;;;;;4992949;28;20501;-47
2022/07/05 00:04:29;;;;;;;4.55;3.97;;;21.30;51.10;;;;;;5023402;28;20047;-45
2022/07/05 00:09:52;;;;;;;5.95;4.15;;;21.30;51.30;;;;;;5023758;28;20042;-48
2022/07/05 00:12:22;;;;;;;4.82;3.83;;;21.40;51.50;;;;;;5010556;28;20099;-48
2022/07/05 00:14:49;;;;;;;5.60;3.17;;;21.40;51.30;;;;;;5011669;28;20069;-46
2022/07/05 00:17:18;;;;;;;4.15;3.75;;;21.40;51.20;;;;;;5012037;28;20048;-46
2022/07/05 00:19:48;;;;;;;4.22;3.83;;;21.50;51.30;;;;;;5021703;28;20057;-46
2022/07/05 00:22:15;;;;;;;4.55;4.05;;;21.50;51.90;;;;;;5022140;28;20099;-48
2022/07/05 00:24:48;;;;;;;3.80;3.50;;;21.50;51.70;;;;;;5031139;28;20053;-46
2022/07/05 00:27:16;;;;;;;;;;;21.50;51.60;;;;;;5025978;28;20108;-47
2022/07/05 00:29:50;;;;;;;4.88;3.50;;;21.60;50.50;;;;;;4996119;28;20386;-46
2022/07/05 00:32:17;;;;;;;6.05;4.28;;;21.50;50.90;;;;;;5025965;28;20604;-51
2022/07/05 00:34:46;;;;;;;4.63;3.75;;;21.50;51.10;;;;;;5019820;28;20065;-49
2022/07/05 00:37:14;;;;;;;4.60;4.03;;;21.50;51.60;;;;;;5014286;28;20049;-47
2022/07/05 00:39:40;;;;;;;4.82;4.43;;;21.50;51.30;;;;;;5020785;28;20521;-48
2022/07/05 00:42:11;;;;;;;5.55;3.85;;;21.40;51.40;;;;;;5005131;28;20413;-51
2022/07/05 00:44:41;;;;;;;4.18;3.78;;;21.40;51.40;;;;;;5029239;28;20049;-50
2022/07/05 00:47:12;;;;;;;5.00;4.15;;;21.40;51.70;;;;;;5021409;28;20042;-48
2022/07/05 00:49:41;;;;;;;4.47;4.05;;;21.30;51.40;;;;;;5020596;28;20041;-51
2022/07/05 00:52:12;;;;;;;4.47;4.10;;;21.20;51.70;;;;;;5029854;28;20038;-49
2022/07/05 00:54:47;;;;;;;3.95;3.45;;;21.20;51.80;;;;;;5020984;28;20045;-49
2022/07/05 00:57:16;;;;;;;4.40;4.00;;;21.10;51.40;;;;;;4985933;28;20129;-50
2022/07/05 00:59:43;;;;;;;5.53;3.95;;;21.00;51.60;;;;;;5007694;28;20060;-48
2022/07/05 01:02:28;;;;;;;4.38;3.97;;;21.00;51.70;;;;;;5020310;28;20029;-50
2022/07/05 01:04:55;;;;;;;5.35;3.85;;;20.90;52.30;;;;;;4993401;28;20108;-50
2022/07/05 01:07:23;;;;;;;4.43;4.03;;;20.80;51.60;;;;;;5017014;28;20651;-49
2022/07/05 01:09:50;;;;;;;5.60;4.07;;;20.80;51.50;;;;;;5024922;28;20046;-47
2022/07/05 01:12:20;;;;;;;6.55;3.95;;;20.70;51.70;;;;;;5026293;28;20041;-49
2022/07/05 01:14:50;;;;;;;4.40;4.03;;;20.70;51.90;;;;;;5024668;28;20042;-48
2022/07/05 01:17:20;;;;;;;4.43;4.03;;;20.60;52.30;;;;;;5018967;28;20116;-48
2022/07/05 01:19:46;;;;;;;3.97;3.67;;;20.60;52.70;;;;;;5026124;28;20041;-49
2022/07/05 01:22:18;;;;;;;4.18;3.88;;;20.50;52.60;;;;;;5018044;28;20050;-50
2022/07/05 01:24:48;;;;;;;5.45;4.88;;;20.50;53.30;;;;;;5012449;28;20141;-50
2022/07/05 01:27:15;;;;;;;3.75;3.45;;;20.50;53.10;;;;;;5018311;28;20049;-46
2022/07/05 01:29:45;;;;;;;4.10;3.40;;;20.40;53.00;;;;;;5027367;28;20041;-50
2022/07/05 01:32:12;;;;;;;5.47;4.10;;;20.30;52.90;;;;;;5022611;28;20049;-47
2022/07/05 01:34:40;;;;;;;4.03;3.72;;;20.30;53.20;;;;;;5012666;28;20042;-49
2022/07/05 01:37:11;;;;;;;4.82;3.25;;;20.20;53.00;;;;;;5015866;28;20100;-46
2022/07/05 01:39:41;;;;;;;5.43;4.10;;;20.20;53.00;;;;;;5010369;28;20053;-46
2022/07/05 01:42:08;;;;;;;4.72;4.30;;;20.10;53.10;;;;;;5018999;28;20077;-47
2022/07/05 01:44:35;;;;;;;4.13;3.60;;;20.10;53.30;;;;;;5003531;28;20065;-47
2022/07/05 01:47:06;;;;;;;4.53;3.92;;;20.10;53.40;;;;;;5024993;28;20060;-46
2022/07/05 01:49:41;;;;;;;5.45;3.95;;;20.10;54.20;;;;;;5025725;28;20033;-45
2022/07/05 01:52:12;;;;;;;4.63;3.65;;;20.10;54.40;;;;;;5022547;28;20460;-50
2022/07/05 01:54:43;;;;;;;3.58;3.28;;;20.10;54.50;;;;;;5023416;28;20060;-48
2022/07/05 01:57:11;;;;;;;4.38;3.60;;;20.00;54.40;;;;;;5024792;28;20038;-46
2022/07/05 01:59:42;;;;;;;3.63;3.33;;;20.00;54.50;;;;;;5002109;28;20045;-47
2022/07/05 02:02:09;;;;;;;4.07;3.67;;;20.10;54.50;;;;;;5016497;28;20050;-50
2022/07/05 02:04:38;;;;;;;4.78;4.10;;;20.10;54.70;;;;;;5020356;28;20049;-46
2022/07/05 02:07:12;;;;;;;6.00;3.85;;;20.00;54.60;;;;;;5001673;28;20099;-47
2022/07/05 02:09:40;;;;;;;6.60;3.67;;;20.00;54.60;;;;;;5008459;28;20580;-46
2022/07/05 02:12:08;;;;;;;3.70;3.40;;;20.00;54.40;;;;;;5019112;28;20489;-50
2022/07/05 02:14:35;;;;;;;3.80;3.45;;;20.00;54.60;;;;;;5018264;28;20108;-45
2022/07/05 02:17:06;;;;;;;3.63;3.33;;;20.00;54.80;;;;;;5027096;28;20048;-50
2022/07/05 02:19:37;;;;;;;3.63;3.33;;;20.00;54.80;;;;;;5019602;28;20053;-46
2022/07/05 02:22:06;;;;;;;;;;;20.00;55.30;;;;;;5002259;28;20497;-46
2022/07/05 02:24:33;;;;;;;3.40;3.10;;;20.00;54.10;;;;;;5006202;28;19933;-46
2022/07/05 02:27:12;;;;;;;4.25;3.42;;;20.00;54.30;;;;;;5026319;28;20041;-50
2022/07/05 02:29:39;;;;;;;4.00;3.47;;;19.90;54.60;;;;;;5017940;28;20042;-51
2022/07/05 02:32:10;;;;;;;3.75;3.10;;;19.90;54.70;;;;;;5005098;28;20092;-51
2022/07/05 02:34:40;;;;;;;3.92;3.50;;;19.90;54.70;;;;;;5010407;28;20070;-51
2022/07/05 02:37:11;;;;;;;3.58;3.28;;;19.90;54.50;;;;;;4995014;28;20095;-51
2022/07/05 02:39:38;;;;;;;3.17;2.97;;;19.80;54.40;;;;;;5025121;28;20074;-48
2022/07/05 02:42:08;;;;;;;3.97;3.58;;;19.80;54.50;;;;;;5010962;28;20099;-51
2022/07/05 02:44:45;;;;;;;3.38;3.08;;;19.80;54.70;;;;;;5012203;28;20532;-51
2022/07/05 02:47:13;;;;;;;3.55;3.25;;;19.80;54.80;;;;;;5000133;28;20042;-51
2022/07/05 02:49:40;;;;;;;3.83;3.53;;;19.70;54.90;;;;;;5026638;28;20030;-49
2022/07/05 02:52:10;;;;;;;3.28;2.83;;;19.70;54.60;;;;;;5013668;28;20072;-49
2022/07/05 02:54:40;;;;;;;2.95;2.67;;;19.60;54.40;;;;;;5027239;28;20057;-49
2022/07/05 02:57:10;;;;;;;4.18;3.58;;;19.60;54.70;;;;;;5006474;28;20132;-49
2022/07/05 02:59:40;;;;;;;3.25;3.05;;;19.60;54.50;;;;;;5005382;28;20133;-49
2022/07/05 03:02:08;;;;;;;3.50;3.17;;;19.60;55.30;;;;;;5012644;28;20509;-50
2022/07/05 03:04:37;;;;;;;3.83;3.30;;;19.50;54.70;;;;;;5012235;28;20593;-49
2022/07/05 03:07:05;;;;;;;4.70;3.42;;;19.40;54.80;;;;;;5011106;28;20049;-46
2022/07/05 03:09:32;;;;;;;3.67;3.38;;;19.40;54.90;;;;;;5023177;28;20050;-46
2022/07/05 03:12:03;;;;;;;2.97;2.67;;;19.30;55.70;;;;;;5030941;28;20488;-46
2022/07/05 03:14:31;;;;;;;4.68;3.10;;;19.30;55.10;;;;;;5006312;28;20056;-50
2022/07/05 03:16:59;;;;;;;4.22;3.53;;;19.30;55.20;;;;;;5020149;28;20551;-50
2022/07/05 03:19:27;;;;;;;3.67;3.25;;;19.20;55.30;;;;;;5024936;28;20045;-49
2022/07/05 03:21:59;;;;;;;3.35;3.03;;;19.20;55.40;;;;;;5030875;28;20132;-48
2022/07/05 03:24:26;;;;;;;3.03;2.83;;;19.20;55.30;;;;;;5004144;28;20049;-49
2022/07/05 03:26:56;;;;;;;3.00;2.75;;;19.20;55.40;;;;;;5021341;28;20064;-46
2022/07/05 03:29:25;;;;;;;3.75;3.22;;;19.20;55.50;;;;;;5023585;28;20489;-49
2022/07/05 03:31:53;;;;;;;3.78;3.15;;;19.10;55.40;;;;;;5030426;28;20041;-46
2022/07/05 03:34:27;;;;;;;3.30;3.10;;;19.10;55.10;;;;;;5025299;28;20103;-45
2022/07/05 03:36:58;;;;;;;3.15;2.95;;;19.10;54.90;;;;;;5004461;28;20465;-46
2022/07/05 03:39:27;;;;;;;3.97;3.20;;;19.00;54.80;;;;;;5023669;28;20508;-49
2022/07/05 03:41:54;;;;;;;3.95;3.53;;;18.90;54.80;;;;;;5013637;28;20049;-46
2022/07/05 03:44:23;;;;;;;3.30;3.00;;;18.80;54.70;;;;;;5000565;28;20044;-47
2022/07/05 03:46:55;;;;;;;3.42;3.13;;;18.80;55.30;;;;;;5001974;28;20112;-48
2022/07/05 03:49:27;;;;;;;4.95;3.42;;;18.80;54.70;;;;;;4991437;28;20073;-49
2022/07/05 03:51:54;;;;;;;4.38;3.28;;;18.70;54.70;;;;;;4977701;28;20262;-48
2022/07/05 03:54:21;;;;;;;3.53;3.22;;;18.60;54.80;;;;;;5025234;28;20057;-46
2022/07/05 03:56:48;;;;;;;3.13;2.88;;;18.50;54.80;;;;;;5001837;28;20136;-50
2022/07/05 03:59:15;;;;;;;3.53;3.22;;;18.60;54.80;;;;;;5024474;28;20042;-46
2022/07/05 04:01:45;;;;;;;3.20;3.00;;;18.40;54.80;;;;;;5019969;28;20057;-46
2022/07/05 04:04:14;;;;;;;3.53;3.22;;;18.40;54.90;;;;;;5005422;28;20101;-48
2022/07/05 04:06:41;;;;;;;3.67;3.20;;;18.30;55.20;;;;;;5028622;28;20128;-47
2022/07/05 04:09:10;;;;;;;3.05;2.85;;;18.30;55.30;;;;;;4996913;28;20043;-47
2022/07/05 04:11:39;;;;;;;3.55;2.92;;;18.20;56.00;;;;;;5013863;28;20122;-47
2022/07/05 04:14:09;;;;;;;3.90;3.60;;;18.20;55.30;;;;;;5009210;28;20068;-45
2022/07/05 04:16:39;;;;;;;3.78;3.47;;;18.20;55.90;;;;;;5023083;28;20542;-50
2022/07/05 04:19:06;;;;;;;4.10;3.00;;;18.10;56.40;;;;;;5012606;28;20041;-49
2022/07/05 04:21:41;;;;;;;3.67;3.30;;;18.10;56.30;;;;;;4999226;28;20413;-50
2022/07/05 04:24:18;;;;;;;4.68;3.10;;;18.20;57.20;;;;;;5005114;28;20417;-50
2022/07/05 04:26:45;;;;;;;3.63;2.95;;;18.20;57.20;;;;;;5030633;28;20049;-50
2022/07/05 04:29:13;;;;;;;3.47;3.20;;;18.10;57.00;;;;;;5024324;28;20070;-50
2022/07/05 04:31:47;;;;;;;4.28;3.40;;;18.10;57.10;;;;;;5021853;28;20045;-51
2022/07/05 04:34:14;;;;;;;3.30;3.10;;;18.20;57.20;;;;;;5006851;28;20049;-50
2022/07/05 04:36:45;;;;;;;3.53;2.97;;;18.20;57.30;;;;;;5020047;28;20054;-50
2022/07/05 04:39:20;;;;;;;3.72;3.42;;;18.20;57.40;;;;;;5021760;28;20100;-49
2022/07/05 04:41:54;;;;;;;5.82;3.67;;;18.20;57.70;;;;;;5012865;28;20053;-47
2022/07/05 04:44:23;;;;;;;4.85;3.92;;;18.20;57.40;;;;;;5025484;28;20128;-46
2022/07/05 04:46:50;;;;;;;5.18;4.55;;;18.20;57.50;;;;;;5020227;28;20160;-50
2022/07/05 04:49:26;;;;;;;8.88;4.57;;;18.30;57.90;;;;;;4993258;28;20034;-50
2022/07/05 04:51:53;;;;;;;5.13;4.35;;;18.30;58.00;;;;;;5021803;28;20037;-47
2022/07/05 04:54:21;;;;;;;6.03;5.53;;;18.30;58.20;;;;;;5005007;28;20417;-48
2022/07/05 04:56:50;;;;;;;6.10;5.50;;;18.40;58.30;;;;;;5017878;28;20108;-50
2022/07/05 04:59:17;;;;;;;6.03;5.53;;;18.40;58.30;;;;;;5007231;28;20100;-46
2022/07/05 05:01:50;;;;;;;7.43;5.75;;;18.50;58.60;;;;;;5003920;28;20526;-46
2022/07/05 05:04:17;;;;;;;6.65;5.65;;;18.50;58.50;;;;;;5022595;22;20075;-45
2022/07/05 05:06:43;;;;;;;6.95;6.03;;;18.50;58.60;;;;;;5017217;28;20038;-46
2022/07/05 05:09:10;;;;;;;6.40;5.90;;;18.60;58.60;;;;;;5018143;28;20408;-46
2022/07/05 05:11:37;;;;;;;7.82;7.13;;;18.70;58.80;;;;;;5022100;28;20053;-45
2022/07/05 05:14:04;;;;;;;7.53;6.80;;;18.80;58.70;;;;;;5007980;28;20065;-45
2022/07/05 05:16:30;;;;;;;7.90;6.93;;;18.80;58.60;;;;;;4994914;28;20760;-46
2022/07/05 05:18:57;;;;;;;7.72;7.03;;;18.90;58.80;;;;;;5002898;28;20049;-46
2022/07/05 05:21:24;;;;;;;9.00;7.07;;;19.00;58.60;;;;;;4999009;28;20134;-45
2022/07/05 05:23:51;;;;;;;8.50;6.60;;;19.00;58.70;;;;;;4999417;28;20452;-44
2022/07/05 05:26:17;;;;;;;8.07;7.28;;;19.00;58.70;;;;;;5000254;28;20109;-46
2022/07/05 05:28:46;;;;;;;8.23;7.03;;;19.10;58.60;;;;;;5001597;28;21465;-45
2022/07/05 05:31:17;;;;;;;8.13;7.13;;;19.20;58.10;;;;;;4996516;28;20038;-46
2022/07/05 05:33:44;;;;;;;9.45;7.53;;;19.20;57.90;;;;;;4993154;28;20042;-44
2022/07/05 05:36:11;;;;;;;13.02;8.20;;;19.30;58.00;;;;;;4997379;28;20088;-44
2022/07/05 05:38:38;;;;;;;10.05;7.38;;;19.40;57.80;;;;;;5002769;28;20105;-45
2022/07/05 05:41:05;;;;;;;8.57;7.72;;;19.40;57.70;;;;;;5010769;28;20531;-44
2022/07/05 05:43:32;;;;;;;9.30;7.95;;;19.40;57.90;;;;;;5011195;28;20544;-44
2022/07/05 05:45:59;;;;;;;10.13;8.07;;;19.50;57.90;;;;;;4993516;28;20103;-44
2022/07/05 05:48:26;;;;;;;9.45;8.45;;;19.50;58.40;;;;;;4999569;28;20034;-44
2022/07/05 05:50:52;;;;;;;9.32;7.75;;;19.60;57.60;;;;;;4994749;28;20105;-45
2022/07/05 05:53:19;;;;;;;10.85;7.65;;;19.70;58.20;;;;;;4988519;28;20520;-44
2022/07/05 05:55:46;;;;;;;9.07;7.40;;;19.70;57.30;;;;;;5000687;28;20057;-47
2022/07/05 05:58:26;;;;;;;8.82;7.75;;;19.80;56.80;;;;;;5002771;28;20045;-45
2022/07/05 06:00:53;;;;;;;6.72;6.03;;;19.80;56.70;;;;;;5001127;28;20113;-45
2022/07/05 06:03:24;;;;;;;7.78;6.97;;;19.90;56.20;;;;;;4997545;28;20571;-45
2022/07/05 06:05:51;;;;;;;7.90;6.47;;;19.90;56.00;;;;;;5004219;28;20042;-46
2022/07/05 06:08:18;;;;;;;6.90;6.20;;;20.00;56.00;;;;;;5008419;28;20037;-44
2022/07/05 06:10:45;;;;;;;6.57;5.88;;;20.00;55.90;;;;;;5004465;28;20559;-45
2022/07/05 06:13:20;;;;;;;5.60;5.10;;;20.10;55.70;;;;;;5001235;28;20046;-45
2022/07/05 06:15:46;;;;;;;5.63;4.93;;;20.10;55.40;;;;;;4987091;28;20102;-44
2022/07/05 06:18:13;;;;;;;7.32;4.85;;;20.20;55.20;;;;;;5003827;28;20054;-45
2022/07/05 06:20:40;;;;;;;6.88;4.78;;;20.20;55.20;;;;;;4999373;28;20401;-44
2022/07/05 06:23:07;;;;;;;7.53;5.93;;;20.40;55.50;;;;;;5004160;28;20636;-46
2022/07/05 06:25:34;;;;;;;5.93;5.32;;;20.40;55.50;;;;;;5006272;28;20472;-44
2022/07/05 06:28:05;;;;;;;5.80;5.30;;;20.40;55.10;;;;;;5006205;28;20839;-45
2022/07/05 06:30:37;;;;;;;6.38;5.50;;;20.50;55.20;;;;;;5000098;28;20516;-45
2022/07/05 06:33:04;;;;;;;4.50;4.07;;;20.50;54.70;;;;;;5001989;28;20047;-44
2022/07/05 06:35:31;;;;;;;4.22;3.65;;;20.60;54.00;;;;;;5007252;28;20038;-44
2022/07/05 06:38:04;;;;;;;4.80;4.32;;;20.60;54.10;;;;;;5009679;28;20495;-44
2022/07/05 06:40:50;;;;;;;4.75;3.95;;;20.70;53.70;;;;;;5008322;28;20129;-46
2022/07/05 06:43:19;;;;;;;6.80;5.03;;;20.70;54.20;;;;;;5001519;28;20054;-44
2022/07/05 06:45:54;;;;;;;5.20;4.70;;;20.70;54.00;;;;;;5004439;28;20531;-44
2022/07/05 06:48:20;;;;;;;4.82;4.32;;;20.80;53.80;;;;;;5010577;28;20045;-45
2022/07/05 06:50:48;;;;;;;2.83;2.63;;;20.90;53.90;;;;;;5005047;28;20624;-46
2022/07/05 06:53:15;;;;;;;2.80;2.60;;;20.90;52.90;;;;;;5007569;28;20490;-46
2022/07/05 06:55:44;;;;;;;5.05;3.67;;;21.00;52.80;;;;;;4995940;28;20505;-44
2022/07/05 06:58:17;;;;;;;5.88;4.07;;;21.00;53.20;;;;;;4991143;28;20519;-45
2022/07/05 07:00:44;;;;;;;5.60;4.40;;;21.10;53.50;;;;;;4992845;28;20053;-44
2022/07/05 07:03:31;;;;;;;4.10;3.65;;;21.20;53.50;;;;;;5001449;28;20038;-45
2022/07/05 07:06:18;;;;;;;4.43;3.47;;;21.40;53.80;;;;;;5003810;28;20038;-46
2022/07/05 07:11:33;;;;;;;3.80;2.67;;;21.60;53.20;;;;;;5000535;28;20146;-44
2022/07/05 07:14:00;;;;;;;4.90;2.78;;;21.90;52.70;;;;;;5002613;28;20058;-45
2022/07/05 07:16:27;;;;;;;3.78;3.30;;;22.00;53.10;;;;;;4993286;28;20100;-45
2022/07/05 07:18:54;;;;;;;3.13;2.67;;;22.10;52.50;;;;;;4997685;28;20056;-46
2022/07/05 07:21:40;;;;;;;3.35;2.88;;;22.30;52.30;;;;;;4995966;28;20058;-45
2022/07/05 07:24:08;;;;;;;5.47;2.78;;;22.40;51.70;;;;;;5006166;28;20054;-44
2022/07/05 07:29:20;;;;;;;2.67;1.90;;;22.60;50.60;;;;;;4996015;28;20443;-44
2022/07/05 07:31:47;;;;;;;1.80;1.70;;;22.70;50.00;;;;;;4997754;28;20058;-46
2022/07/05 07:34:14;;;;;;;2.88;2.13;;;22.80;49.30;;;;;;4993278;28;20054;-44
2022/07/05 07:36:41;;;;;;;3.38;2.10;;;22.80;49.00;;;;;;4997034;28;20108;-46
2022/07/05 07:39:08;;;;;;;2.90;2.58;;;22.90;48.80;;;;;;4998889;28;20049;-46
2022/07/05 07:41:35;;;;;;;2.38;2.15;;;22.90;48.70;;;;;;5000824;28;20050;-45
2022/07/05 07:44:04;;;;;;;3.25;1.90;;;22.90;49.10;;;;;;5011551;28;20132;-44
2022/07/05 07:46:31;;;;;;;3.20;1.83;;;22.90;48.90;;;;;;4998918;28;20066;-45
2022/07/05 07:48:58;;;;;;;3.80;1.83;;;22.90;48.50;;;;;;5004036;28;20157;-45
2022/07/05 07:51:25;;;;;;;3.17;1.88;;;23.00;48.30;;;;;;5004116;28;20705;-46
2022/07/05 07:53:53;;;;;;;1.83;1.60;;;22.90;48.20;;;;;;5013398;28;20084;-45
2022/07/05 07:56:36;;;;;;;3.63;1.50;;;22.90;47.90;;;;;;4993952;28;20109;-46
2022/07/05 07:59:03;;;;;;;3.15;1.60;;;22.90;47.40;;;;;;5003769;28;20042;-45
2022/07/05 08:01:31;;;;;;;3.58;1.55;;;22.90;47.30;;;;;;4998974;28;20054;-47
2022/07/05 08:03:57;;;;;;;3.15;2.83;;;22.90;47.10;;;;;;4989721;28;20042;-45
2022/07/05 08:06:25;;;;;;;2.03;1.83;;;22.90;47.10;;;;;;5000772;28;20069;-48
2022/07/05 08:08:51;;;;;;;3.03;1.67;;;22.90;47.40;;;;;;5004857;28;20453;-44
2022/07/05 08:11:20;;;;;;;9.45;1.95;;;23.00;47.10;;;;;;5008324;28;20104;-45
2022/07/05 08:13:47;;;;;;;4.88;2.15;;;23.10;47.50;;;;;;5001209;28;20533;-44
2022/07/05 08:16:14;;;;;;;3.28;1.77;;;23.20;47.20;;;;;;5003286;28;20077;-50
2022/07/05 08:21:37;;;;;;;2.95;1.95;;;23.30;46.60;;;;;;4999856;28;20042;-46
2022/07/05 08:24:06;;;;;;;3.33;2.20;;;23.40;46.00;;;;;;4997543;28;20425;-44
2022/07/05 08:26:34;;;;;;;2.78;2.25;;;23.40;45.70;;;;;;5006054;28;20050;-47
2022/07/05 08:29:03;;;;;;;5.22;2.08;;;23.40;45.30;;;;;;5008648;28;20073;-45
2022/07/05 08:31:47;;;;;;;3.75;2.25;;;23.50;45.30;;;;;;5010355;28;20453;-45
2022/07/05 08:34:14;;;;;;;2.72;2.33;;;23.50;45.50;;;;;;4996010;28;20069;-45
2022/07/05 08:36:42;;;;;;;3.90;2.47;;;23.60;45.70;;;;;;4999666;28;20046;-45
2022/07/05 08:39:08;;;;;;;2.90;2.63;;;23.60;45.70;;;;;;5002553;28;20123;-44
2022/07/05 08:41:40;;;;;;;3.88;2.90;;;23.70;45.90;;;;;;5011001;28;20425;-45
2022/07/05 08:44:07;;;;;;;5.90;2.70;;;23.70;45.60;;;;;;4991979;28;20131;-45
2022/07/05 08:46:38;;;;;;;3.20;2.55;;;23.70;45.30;;;;;;4997902;28;20080;-45
2022/07/05 08:49:06;;;;;;;5.68;3.03;;;23.70;45.40;;;;;;5003687;28;20045;-45
2022/07/05 08:51:39;;;;;;;3.83;2.65;;;23.60;45.20;;;;;;5004479;28;20436;-44
2022/07/05 08:54:11;;;;;;;3.17;2.90;;;23.60;45.20;;;;;;4997822;28;20108;-44
2022/07/05 08:56:41;;;;;;;2.63;2.42;;;23.60;45.60;;;;;;5000148;28;20437;-44
2022/07/05 08:59:27;;;;;;;3.65;2.60;;;23.50;46.30;;;;;;4998990;28;20050;-44
2022/07/05 09:01:56;;;;;;;4.65;3.20;;;23.50;45.80;;;;;;4990360;28;20055;-44
2022/07/05 09:04:28;;;;;;;3.72;2.83;;;23.50;45.90;;;;;;5003073;28;20058;-45
2022/07/05 09:06:57;;;;;;;;;;;23.50;45.60;;;;;;5008590;28;20461;-45
2022/07/05 09:09:26;;;;;;;4.15;2.85;;;23.50;45.80;;;;;;5001491;28;19929;-45
2022/07/05 09:11:52;;;;;;;3.95;3.00;;;23.50;45.80;;;;;;4992526;28;20072;-45
2022/07/05 09:14:39;;;;;;;4.20;2.90;;;23.60;46.30;;;;;;5000353;28;20042;-46
2022/07/05 09:17:06;;;;;;;3.20;2.72;;;23.80;46.50;;;;;;5008842;28;20099;-46
2022/07/05 09:19:34;;;;;;;2.60;2.40;;;23.80;46.50;;;;;;5003419;28;20379;-45
2022/07/05 09:22:08;;;;;;;4.43;1.85;;;23.90;45.20;;;;;;5006833;28;20405;-45
2022/07/05 09:24:45;;;;;;;2.10;1.90;;;24.10;45.60;;;;;;5005852;28;20049;-46
2022/07/05 09:27:13;;;;;;;2.20;1.60;;;24.20;43.50;;;;;;5010107;28;20045;-45
2022/07/05 09:29:56;;;;;;;3.22;1.67;;;24.30;44.10;;;;;;4988441;28;20038;-45
2022/07/05 09:32:32;;;;;;;2.78;1.27;;;24.30;43.20;;;;;;4998350;28;20506;-44
2022/07/05 09:35:20;;;;;;;2.22;1.13;;;24.40;43.20;;;;;;5002808;28;20040;-46
2022/07/05 09:37:47;;;;;;;1.42;1.20;;;24.40;43.00;;;;;;5010544;28;20071;-45
2022/07/05 09:40:14;;;;;;;3.35;1.50;;;24.40;43.10;;;;;;4994179;28;20050;-46
2022/07/05 09:42:46;;;;;;;3.25;1.27;;;24.40;42.40;;;;;;5005019;28;20073;-46
2022/07/05 09:45:24;;;;;;;2.35;1.30;;;24.40;41.90;;;;;;5005262;28;20441;-46
2022/07/05 09:47:55;;;;;;;1.20;1.10;;;24.40;42.50;;;;;;4994381;28;20894;-45
2022/07/05 09:50:43;;;;;;;3.10;0.88;;;24.40;41.70;;;;;;5000844;28;20125;-47
2022/07/05 09:53:47;;;;;;;3.25;1.23;;;24.50;42.60;;;;;;4996859;28;20129;-45
2022/07/05 09:56:13;;;;;;;3.05;1.35;;;24.60;42.60;;;;;;4995305;28;20035;-46
2022/07/05 09:58:41;;;;;;;2.20;1.30;;;24.70;42.40;;;;;;4995092;28;20050;-46
2022/07/05 10:01:31;;;;;;;1.88;1.23;;;24.80;42.60;;;;;;5005192;28;20053;-50
2022/07/05 10:04:03;;;;;;;3.50;1.60;;;24.90;41.30;;;;;;5015425;28;20053;-46
2022/07/05 10:06:33;;;;;;;2.00;1.00;;;25.00;40.60;;;;;;5006133;28;20080;-46
2022/07/05 10:09:00;;;;;;;2.50;1.35;;;25.00;40.30;;;;;;4996930;28;20374;-46
2022/07/05 10:11:27;;;;;;;2.05;1.38;;;25.00;40.60;;;;;;5000853;28;20121;-47
2022/07/05 10:13:58;;;;;;;1.55;1.17;;;25.00;40.80;;;;;;5007633;28;20569;-46
2022/07/05 10:16:25;;;;;;;3.55;1.40;;;25.10;41.10;;;;;;4997826;28;20483;-47
2022/07/05 10:18:55;;;;;;;2.10;1.80;;;25.20;41.10;;;;;;5002055;28;20054;-51
2022/07/05 10:21:24;;;;;;;1.10;1.00;;;25.20;40.80;;;;;;4996917;28;20057;-50
2022/07/05 10:23:55;;;;;;;1.95;1.75;;;25.30;40.10;;;;;;4999951;28;20050;-50
2022/07/05 10:26:23;;;;;;;1.42;1.30;;;25.30;40.10;;;;;;4997029;28;20560;-48
2022/07/05 10:28:53;;;;;;;1.50;1.45;;;25.30;40.40;;;;;;5005591;28;20081;-52
2022/07/05 10:31:28;;;;;;;1.75;1.65;;;25.30;40.60;;;;;;4991419;28;20129;-51
2022/07/05 10:33:57;;;;;;;3.55;1.70;;;25.30;40.50;;;;;;4993779;28;20042;-52
2022/07/05 10:36:24;;;;;;;4.97;1.70;;;25.40;40.50;;;;;;4993583;28;20045;-49
2022/07/05 10:38:52;;;;;;;2.35;1.50;;;25.40;40.30;;;;;;5004655;28;20501;-47
2022/07/05 10:41:23;;;;;;;1.75;1.55;;;25.40;39.60;;;;;;5001409;28;20498;-48
2022/07/05 10:43:56;;;;;;;2.53;2.10;;;25.40;39.60;;;;;;4999540;28;20046;-49
2022/07/05 10:46:36;;;;;;;3.13;1.80;;;25.40;40.50;;;;;;5002277;28;20108;-49
2022/07/05 10:49:13;;;;;;;2.25;1.50;;;25.40;40.50;;;;;;5005699;28;20553;-50
2022/07/05 10:51:40;;;;;;;4.13;2.10;;;25.50;40.40;;;;;;4993061;28;20081;-50
2022/07/05 10:54:07;;;;;;;2.42;2.22;;;25.60;40.70;;;;;;4992431;28;20042;-48
2022/07/05 10:56:33;;;;;;;2.40;2.20;;;25.60;40.70;;;;;;5000842;28;20100;-52
2022/07/05 10:59:09;;;;;;;2.00;1.83;;;25.80;41.00;;;;;;5005805;28;20637;-50
2022/07/05 11:01:38;;;;;;;2.60;1.50;;;25.90;40.60;;;;;;4990212;28;20054;-52
2022/07/05 11:04:05;;;;;;;2.08;1.55;;;26.00;39.60;;;;;;4995558;28;20066;-47
2022/07/05 11:06:38;;;;;;;2.28;1.83;;;26.10;39.60;;;;;;5003080;28;20065;-48
2022/07/05 11:09:11;;;;;;;2.50;1.83;;;26.10;39.50;;;;;;5022532;22;20022;-51
2022/07/05 11:11:40;;;;;;;3.50;1.50;;;26.10;39.80;;;;;;5044229;28;20416;-50
2022/07/05 11:14:22;;;;;;;2.55;1.17;;;26.10;39.80;;;;;;5033309;28;20099;-52
2022/07/05 11:17:09;;;;;;;1.92;1.42;;;26.20;39.20;;;;;;5026742;28;20762;-53
2022/07/05 11:20:08;;;;;;;3.50;1.83;;;26.20;39.10;;;;;;5032222;28;20758;-52
2022/07/05 11:22:59;;;;;;;4.10;2.05;;;26.30;39.50;;;;;;5029886;28;20049;-54
2022/07/05 11:25:30;;;;;;;3.33;2.55;;;26.40;40.10;;;;;;5021426;28;20061;-53
2022/07/05 11:28:06;;;;;;;3.22;2.58;;;26.40;39.80;;;;;;5043527;28;20049;-52
2022/07/05 11:30:45;;;;;;;5.07;2.25;;;26.50;39.80;;;;;;5042125;28;20045;-50
2022/07/05 11:33:33;;;;;;;2.90;2.17;;;26.60;39.20;;;;;;5037389;28;20456;-52
2022/07/05 11:36:03;;;;;;;2.03;1.35;;;26.60;38.80;;;;;;5028056;28;20409;-50
2022/07/05 11:38:31;;;;;;;2.25;1.67;;;26.60;38.50;;;;;;5022901;28;20095;-54
2022/07/05 11:41:17;;;;;;;3.33;1.58;;;26.70;38.30;;;;;;5026593;28;20655;-52
2022/07/05 11:43:57;;;;;;;1.30;1.20;;;26.80;38.50;;;;;;5031993;28;20071;-52
2022/07/05 11:46:24;;;;;;;1.75;1.63;;;26.80;37.90;;;;;;5028517;28;20053;-53
2022/07/05 11:49:11;;;;;;;3.05;1.65;;;26.80;38.00;;;;;;5029247;28;20532;-52
2022/07/05 11:51:37;;;;;;;2.85;1.90;;;26.80;38.20;;;;;;5025023;28;20796;-52
2022/07/05 11:54:09;;;;;;;3.10;1.80;;;26.90;38.80;;;;;;5034487;28;20100;-52
2022/07/05 11:56:44;;;;;;;1.75;1.30;;;26.90;38.00;;;;;;5024728;28;20076;-52
2022/07/05 11:59:21;;;;;;;1.35;1.25;;;26.90;38.00;;;;;;5028129;28;20045;-53
2022/07/05 12:01:48;;;;;;;4.38;1.63;;;27.00;38.30;;;;;;5031160;28;20049;-52
2022/07/05 12:04:25;;;;;;;1.95;1.50;;;27.10;38.90;;;;;;5034036;28;20041;-51
2022/07/05 12:06:53;;;;;;;1.35;1.20;;;27.20;38.50;;;;;;5021994;28;20049;-49
2022/07/05 12:12:42;;;;;;;2.78;1.55;;;27.30;37.50;;;;;;5027545;28;20037;-51
2022/07/05 12:12:43;;;;;;;1.35;0.95;;;27.40;36.60;;;;;;5031341;28;20032;-50
2022/07/05 12:15:20;;;;;;;1.92;0.88;;;27.60;36.70;;;;;;5022663;28;20398;-51
2022/07/05 12:17:49;;;;;;;1.08;1.02;;;27.70;36.00;;;;;;5029372;28;20405;-49
2022/07/05 12:20:23;;;;;;;1.23;0.95;;;27.80;36.40;;;;;;5032500;28;20057;-49
2022/07/05 12:22:51;;;;;;;1.63;1.15;;;27.80;35.80;;;;;;5036271;28;20459;-51
2022/07/05 12:25:20;;;;;;;2.40;1.42;;;27.80;35.80;;;;;;5026924;28;20451;-51
2022/07/05 12:27:48;;;;;;;1.38;1.20;;;27.80;35.80;;;;;;5019210;28;20046;-51
2022/07/05 12:30:16;;;;;;;1.75;1.55;;;27.80;35.40;;;;;;5025297;28;20041;-50
2022/07/05 12:32:56;;;;;;;0.88;0.70;;;27.70;35.10;;;;;;5031836;28;20037;-51
2022/07/05 12:35:30;;;;;;;3.33;0.90;;;27.80;34.70;;;;;;5033056;28;20041;-50
2022/07/05 12:38:04;;;;;;;1.80;0.73;;;27.70;36.00;;;;;;5026649;28;20037;-53
2022/07/05 12:40:31;;;;;;;3.45;0.98;;;27.70;35.40;;;;;;5032057;28;20738;-53
2022/07/05 12:43:13;;;;;;;1.85;0.95;;;27.70;34.70;;;;;;5030671;28;20576;-52
2022/07/05 12:45:41;;;;;;;1.80;1.02;;;27.70;34.30;;;;;;5020020;28;20048;-49
2022/07/05 12:48:10;;;;;;;1.67;1.17;;;27.70;34.20;;;;;;5033184;28;20120;-49
2022/07/05 12:50:47;;;;;;;2.50;0.90;;;27.70;34.40;;;;;;5030871;28;20587;-50
2022/07/05 12:59:34;;;;;;;1.30;1.20;;;28.00;34.00;;;;;;5021527;28;20119;-50
2022/07/05 13:02:02;;;;;;;2.90;1.10;;;28.20;34.20;;;;;;5017807;28;20041;-51
2022/07/05 13:04:29;;;;;;;2.20;1.30;;;28.30;33.70;;;;;;5023802;28;20048;-53
2022/07/05 13:06:58;;;;;;;4.10;1.63;;;28.40;34.00;;;;;;5019526;28;20159;-52
2022/07/05 13:09:28;;;;;;;1.55;1.17;;;28.50;34.50;;;;;;5024625;28;20107;-49
2022/07/05 13:12:19;;;;;;;3.00;1.17;;;28.60;33.70;;;;;;5042157;28;20106;-54
2022/07/05 13:14:50;;;;;;;1.98;1.77;;;28.50;34.00;;;;;;5037647;28;20552;-49
2022/07/05 13:17:18;;;;;;;3.70;1.30;;;28.50;34.20;;;;;;5027160;28;20037;-51
2022/07/05 13:19:47;;;;;;;3.53;1.48;;;28.40;34.60;;;;;;5026955;28;20041;-54
2022/07/05 13:22:14;;;;;;;3.53;1.63;;;28.40;34.70;;;;;;5015828;28;20042;-53
2022/07/05 13:24:43;;;;;;;1.92;1.42;;;28.40;34.70;;;;;;5019429;28;20084;-50